sensor_id;sensor_type;location;lat;lon;timestamp;P1;durP1;ratioP1;P2;durP2;ratioP2
50417;SDS011;36346;48.280;14.292;2023-12-14T00:01:19;7.56;;;7.56;;
50417;SDS011;36346;48.280;14.292;2023-12-14T00:03:47;7.46;;;7.46;;
50417;SDS011;36346;48.280;14.292;2023-12-14T00:06:16;8.03;;;8.03;;
50417;SDS011;36346;48.280;14.292;2023-12-14T00:08:46;8.62;;;8.62;;
50417;SDS011;36346;48.280;14.292;2023-12-14T00:11:15;8.89;;;8.89;;
50417;SDS011;36346;48.280;14.292;2023-12-14T00:13:43;9.20;;;9.20;;
50417;SDS011;36346;48.280;14.292;2023-12-14T00:16:12;9.40;;;9.40;;
50417;SDS011;36346;48.280;14.292;2023-12-14T00:18:40;9.38;;;9.38;;
50417;SDS011;36346;48.280;14.292;2023-12-14T00:21:08;9.09;;;9.06;;
50417;SDS011;36346;48.280;14.292;2023-12-14T00:23:36;9.86;;;9.85;;
50417;SDS011;36346;48.280;14.292;2023-12-14T00:26:06;9.77;;;9.77;;
50417;SDS011;36346;48.280;14.292;2023-12-14T00:28:34;9.30;;;9.30;;
50417;SDS011;36346;48.280;14.292;2023-12-14T00:31:02;8.26;;;8.26;;
50417;SDS011;36346;48.280;14.292;2023-12-14T00:33:30;7.98;;;7.98;;
50417;SDS011;36346;48.280;14.292;2023-12-14T00:35:59;8.00;;;8.00;;
50417;SDS011;36346;48.280;14.292;2023-12-14T00:38:27;8.17;;;8.17;;
50417;SDS011;36346;48.280;14.292;2023-12-14T00:40:55;8.05;;;8.05;;
50417;SDS011;36346;48.280;14.292;2023-12-14T00:43:23;7.73;;;7.73;;
50417;SDS011;36346;48.280;14.292;2023-12-14T00:45:52;7.36;;;7.36;;
50417;SDS011;36346;48.280;14.292;2023-12-14T00:48:20;8.07;;;8.07;;
50417;SDS011;36346;48.280;14.292;2023-12-14T00:50:48;8.32;;;8.32;;
50417;SDS011;36346;48.280;14.292;2023-12-14T00:53:17;7.88;;;7.88;;
50417;SDS011;36346;48.280;14.292;2023-12-14T00:55:45;7.85;;;7.85;;
50417;SDS011;36346;48.280;14.292;2023-12-14T00:58:13;7.87;;;7.87;;
50417;SDS011;36346;48.280;14.292;2023-12-14T01:00:42;7.98;;;7.98;;
50417;SDS011;36346;48.280;14.292;2023-12-14T01:03:10;8.26;;;8.26;;
50417;SDS011;36346;48.280;14.292;2023-12-14T01:05:39;7.74;;;7.74;;
50417;SDS011;36346;48.280;14.292;2023-12-14T01:08:07;7.90;;;7.90;;
50417;SDS011;36346;48.280;14.292;2023-12-14T01:10:35;8.48;;;8.48;;
50417;SDS011;36346;48.280;14.292;2023-12-14T01:13:04;7.83;;;7.83;;
50417;SDS011;36346;48.280;14.292;2023-12-14T01:15:32;8.03;;;8.03;;
50417;SDS011;36346;48.280;14.292;2023-12-14T01:18:00;8.20;;;8.20;;
50417;SDS011;36346;48.280;14.292;2023-12-14T01:20:28;7.98;;;7.98;;
50417;SDS011;36346;48.280;14.292;2023-12-14T01:22:57;8.66;;;8.66;;
50417;SDS011;36346;48.280;14.292;2023-12-14T01:25:25;8.54;;;8.54;;
50417;SDS011;36346;48.280;14.292;2023-12-14T01:27:53;8.75;;;8.75;;
50417;SDS011;36346;48.280;14.292;2023-12-14T01:30:21;8.98;;;8.98;;
50417;SDS011;36346;48.280;14.292;2023-12-14T01:32:50;8.84;;;8.84;;
50417;SDS011;36346;48.280;14.292;2023-12-14T01:35:17;9.12;;;9.12;;
50417;SDS011;36346;48.280;14.292;2023-12-14T01:37:45;9.02;;;9.02;;
50417;SDS011;36346;48.280;14.292;2023-12-14T01:40:13;8.82;;;8.82;;
50417;SDS011;36346;48.280;14.292;2023-12-14T01:42:42;8.33;;;8.33;;
50417;SDS011;36346;48.280;14.292;2023-12-14T01:45:10;8.06;;;8.06;;
50417;SDS011;36346;48.280;14.292;2023-12-14T01:47:38;7.94;;;7.94;;
50417;SDS011;36346;48.280;14.292;2023-12-14T01:50:07;8.12;;;8.12;;
50417;SDS011;36346;48.280;14.292;2023-12-14T01:52:35;7.54;;;7.54;;
50417;SDS011;36346;48.280;14.292;2023-12-14T01:55:04;7.25;;;7.25;;
50417;SDS011;36346;48.280;14.292;2023-12-14T01:57:34;7.49;;;7.49;;
50417;SDS011;36346;48.280;14.292;2023-12-14T02:00:03;8.04;;;8.04;;
50417;SDS011;36346;48.280;14.292;2023-12-14T02:02:31;7.58;;;7.58;;
50417;SDS011;36346;48.280;14.292;2023-12-14T02:04:59;7.46;;;7.46;;
50417;SDS011;36346;48.280;14.292;2023-12-14T02:07:29;7.83;;;7.83;;
50417;SDS011;36346;48.280;14.292;2023-12-14T02:09:57;7.66;;;7.66;;
50417;SDS011;36346;48.280;14.292;2023-12-14T02:12:25;7.58;;;7.58;;
50417;SDS011;36346;48.280;14.292;2023-12-14T02:14:55;8.04;;;8.04;;
50417;SDS011;36346;48.280;14.292;2023-12-14T02:17:24;8.26;;;8.26;;
50417;SDS011;36346;48.280;14.292;2023-12-14T02:19:52;7.97;;;7.97;;
50417;SDS011;36346;48.280;14.292;2023-12-14T02:22:20;8.97;;;8.97;;
50417;SDS011;36346;48.280;14.292;2023-12-14T02:24:49;9.01;;;9.01;;
50417;SDS011;36346;48.280;14.292;2023-12-14T02:27:17;9.23;;;9.23;;
50417;SDS011;36346;48.280;14.292;2023-12-14T02:29:46;8.83;;;8.83;;
50417;SDS011;36346;48.280;14.292;2023-12-14T02:32:14;9.12;;;9.12;;
50417;SDS011;36346;48.280;14.292;2023-12-14T02:34:42;8.99;;;8.99;;
50417;SDS011;36346;48.280;14.292;2023-12-14T02:37:10;9.09;;;9.09;;
50417;SDS011;36346;48.280;14.292;2023-12-14T02:39:38;9.02;;;9.02;;
50417;SDS011;36346;48.280;14.292;2023-12-14T02:42:07;8.84;;;8.84;;
50417;SDS011;36346;48.280;14.292;2023-12-14T02:44:35;9.34;;;9.34;;
50417;SDS011;36346;48.280;14.292;2023-12-14T02:47:03;9.44;;;9.44;;
50417;SDS011;36346;48.280;14.292;2023-12-14T02:49:33;9.22;;;9.22;;
50417;SDS011;36346;48.280;14.292;2023-12-14T02:52:01;9.07;;;9.07;;
50417;SDS011;36346;48.280;14.292;2023-12-14T02:54:29;9.19;;;9.19;;
50417;SDS011;36346;48.280;14.292;2023-12-14T02:56:58;9.15;;;9.15;;
50417;SDS011;36346;48.280;14.292;2023-12-14T02:59:26;9.28;;;9.28;;
50417;SDS011;36346;48.280;14.292;2023-12-14T03:01:54;9.64;;;9.64;;
50417;SDS011;36346;48.280;14.292;2023-12-14T03:04:23;10.00;;;10.00;;
50417;SDS011;36346;48.280;14.292;2023-12-14T03:06:51;10.22;;;10.22;;
50417;SDS011;36346;48.280;14.292;2023-12-14T03:09:19;11.61;;;11.61;;
50417;SDS011;36346;48.280;14.292;2023-12-14T03:11:47;11.60;;;11.60;;
50417;SDS011;36346;48.280;14.292;2023-12-14T03:14:15;12.42;;;12.40;;
50417;SDS011;36346;48.280;14.292;2023-12-14T03:16:43;12.23;;;12.23;;
50417;SDS011;36346;48.280;14.292;2023-12-14T03:19:13;11.71;;;11.71;;
50417;SDS011;36346;48.280;14.292;2023-12-14T03:21:41;11.17;;;11.17;;
50417;SDS011;36346;48.280;14.292;2023-12-14T03:24:09;9.90;;;9.90;;
50417;SDS011;36346;48.280;14.292;2023-12-14T03:26:37;10.72;;;10.72;;
50417;SDS011;36346;48.280;14.292;2023-12-14T03:29:05;9.76;;;9.76;;
50417;SDS011;36346;48.280;14.292;2023-12-14T03:31:35;9.79;;;9.79;;
50417;SDS011;36346;48.280;14.292;2023-12-14T03:34:03;10.12;;;10.12;;
50417;SDS011;36346;48.280;14.292;2023-12-14T03:36:31;9.56;;;9.56;;
50417;SDS011;36346;48.280;14.292;2023-12-14T03:38:59;9.80;;;9.80;;
50417;SDS011;36346;48.280;14.292;2023-12-14T03:41:28;9.87;;;9.87;;
50417;SDS011;36346;48.280;14.292;2023-12-14T03:43:56;10.04;;;10.04;;
50417;SDS011;36346;48.280;14.292;2023-12-14T03:46:24;9.64;;;9.64;;
50417;SDS011;36346;48.280;14.292;2023-12-14T03:48:53;9.20;;;9.20;;
50417;SDS011;36346;48.280;14.292;2023-12-14T03:51:23;9.07;;;9.07;;
50417;SDS011;36346;48.280;14.292;2023-12-14T03:53:51;9.53;;;9.53;;
50417;SDS011;36346;48.280;14.292;2023-12-14T03:56:19;9.25;;;9.25;;
50417;SDS011;36346;48.280;14.292;2023-12-14T03:58:47;9.25;;;9.25;;
50417;SDS011;36346;48.280;14.292;2023-12-14T04:01:18;9.18;;;9.16;;
50417;SDS011;36346;48.280;14.292;2023-12-14T04:03:48;9.53;;;9.53;;
50417;SDS011;36346;48.280;14.292;2023-12-14T04:06:16;9.78;;;9.78;;
50417;SDS011;36346;48.280;14.292;2023-12-14T04:08:44;9.99;;;9.99;;
50417;SDS011;36346;48.280;14.292;2023-12-14T04:11:12;10.02;;;10.02;;
50417;SDS011;36346;48.280;14.292;2023-12-14T04:13:40;10.00;;;10.00;;
50417;SDS011;36346;48.280;14.292;2023-12-14T04:16:10;8.58;;;8.58;;
50417;SDS011;36346;48.280;14.292;2023-12-14T04:18:38;9.04;;;9.04;;
50417;SDS011;36346;48.280;14.292;2023-12-14T04:21:07;10.87;;;10.87;;
50417;SDS011;36346;48.280;14.292;2023-12-14T04:23:35;9.61;;;9.61;;
50417;SDS011;36346;48.280;14.292;2023-12-14T04:26:03;8.91;;;8.91;;
50417;SDS011;36346;48.280;14.292;2023-12-14T04:28:31;8.65;;;8.65;;
50417;SDS011;36346;48.280;14.292;2023-12-14T04:31:00;8.88;;;8.88;;
50417;SDS011;36346;48.280;14.292;2023-12-14T04:33:35;8.93;;;8.93;;
50417;SDS011;36346;48.280;14.292;2023-12-14T04:36:03;8.86;;;8.86;;
50417;SDS011;36346;48.280;14.292;2023-12-14T04:38:32;8.96;;;8.96;;
50417;SDS011;36346;48.280;14.292;2023-12-14T04:41:00;8.76;;;8.76;;
50417;SDS011;36346;48.280;14.292;2023-12-14T04:43:28;8.80;;;8.80;;
50417;SDS011;36346;48.280;14.292;2023-12-14T04:45:58;8.94;;;8.94;;
50417;SDS011;36346;48.280;14.292;2023-12-14T04:48:27;9.02;;;9.02;;
50417;SDS011;36346;48.280;14.292;2023-12-14T04:50:55;8.89;;;8.89;;
50417;SDS011;36346;48.280;14.292;2023-12-14T04:53:25;9.16;;;9.16;;
50417;SDS011;36346;48.280;14.292;2023-12-14T04:55:53;9.41;;;9.41;;
50417;SDS011;36346;48.280;14.292;2023-12-14T04:58:21;11.23;;;11.22;;
50417;SDS011;36346;48.280;14.292;2023-12-14T05:00:49;9.61;;;9.61;;
50417;SDS011;36346;48.280;14.292;2023-12-14T05:03:17;9.23;;;9.23;;
50417;SDS011;36346;48.280;14.292;2023-12-14T05:05:46;9.04;;;9.04;;
50417;SDS011;36346;48.280;14.292;2023-12-14T05:08:14;9.00;;;9.00;;
50417;SDS011;36346;48.280;14.292;2023-12-14T05:10:42;9.00;;;9.00;;
50417;SDS011;36346;48.280;14.292;2023-12-14T05:13:10;9.09;;;9.09;;
50417;SDS011;36346;48.280;14.292;2023-12-14T05:15:38;9.48;;;9.48;;
50417;SDS011;36346;48.280;14.292;2023-12-14T05:18:07;9.84;;;9.84;;
50417;SDS011;36346;48.280;14.292;2023-12-14T05:20:36;9.34;;;9.34;;
50417;SDS011;36346;48.280;14.292;2023-12-14T05:23:04;9.15;;;9.15;;
50417;SDS011;36346;48.280;14.292;2023-12-14T05:25:33;9.11;;;9.11;;
50417;SDS011;36346;48.280;14.292;2023-12-14T05:28:02;8.75;;;8.75;;
50417;SDS011;36346;48.280;14.292;2023-12-14T05:30:30;8.78;;;8.78;;
50417;SDS011;36346;48.280;14.292;2023-12-14T05:32:58;9.62;;;9.62;;
50417;SDS011;36346;48.280;14.292;2023-12-14T05:35:29;9.54;;;9.54;;
50417;SDS011;36346;48.280;14.292;2023-12-14T05:37:57;9.45;;;9.45;;
50417;SDS011;36346;48.280;14.292;2023-12-14T05:40:25;9.44;;;9.44;;
50417;SDS011;36346;48.280;14.292;2023-12-14T05:42:54;10.16;;;10.16;;
50417;SDS011;36346;48.280;14.292;2023-12-14T05:45:22;10.16;;;10.16;;
50417;SDS011;36346;48.280;14.292;2023-12-14T05:47:50;10.87;;;10.87;;
50417;SDS011;36346;48.280;14.292;2023-12-14T05:50:19;11.06;;;11.06;;
50417;SDS011;36346;48.280;14.292;2023-12-14T05:52:47;10.79;;;10.79;;
50417;SDS011;36346;48.280;14.292;2023-12-14T05:55:15;10.47;;;10.47;;
50417;SDS011;36346;48.280;14.292;2023-12-14T05:57:49;9.70;;;9.70;;
50417;SDS011;36346;48.280;14.292;2023-12-14T06:00:18;9.47;;;9.47;;
50417;SDS011;36346;48.280;14.292;2023-12-14T06:02:46;9.22;;;9.22;;
50417;SDS011;36346;48.280;14.292;2023-12-14T06:05:15;8.82;;;8.82;;
50417;SDS011;36346;48.280;14.292;2023-12-14T06:07:43;8.97;;;8.97;;
50417;SDS011;36346;48.280;14.292;2023-12-14T06:10:11;8.56;;;8.56;;
50417;SDS011;36346;48.280;14.292;2023-12-14T06:12:39;7.95;;;7.95;;
50417;SDS011;36346;48.280;14.292;2023-12-14T06:15:08;7.82;;;7.82;;
50417;SDS011;36346;48.280;14.292;2023-12-14T06:17:37;7.26;;;7.26;;
50417;SDS011;36346;48.280;14.292;2023-12-14T06:20:07;7.72;;;7.72;;
50417;SDS011;36346;48.280;14.292;2023-12-14T06:22:36;7.37;;;7.37;;
50417;SDS011;36346;48.280;14.292;2023-12-14T06:25:05;7.20;;;7.20;;
50417;SDS011;36346;48.280;14.292;2023-12-14T06:27:33;7.55;;;7.55;;
50417;SDS011;36346;48.280;14.292;2023-12-14T06:30:01;7.22;;;7.22;;
50417;SDS011;36346;48.280;14.292;2023-12-14T06:32:30;6.49;;;6.49;;
50417;SDS011;36346;48.280;14.292;2023-12-14T06:34:59;6.31;;;6.31;;
50417;SDS011;36346;48.280;14.292;2023-12-14T06:37:27;6.37;;;6.37;;
50417;SDS011;36346;48.280;14.292;2023-12-14T06:39:55;6.36;;;6.36;;
50417;SDS011;36346;48.280;14.292;2023-12-14T06:42:24;6.32;;;6.32;;
50417;SDS011;36346;48.280;14.292;2023-12-14T06:44:55;6.35;;;6.35;;
50417;SDS011;36346;48.280;14.292;2023-12-14T06:47:23;6.31;;;6.31;;
50417;SDS011;36346;48.280;14.292;2023-12-14T06:49:51;6.14;;;6.14;;
50417;SDS011;36346;48.280;14.292;2023-12-14T06:52:20;6.50;;;6.50;;
50417;SDS011;36346;48.280;14.292;2023-12-14T06:54:48;6.77;;;6.77;;
50417;SDS011;36346;48.280;14.292;2023-12-14T06:57:16;6.34;;;6.34;;
50417;SDS011;36346;48.280;14.292;2023-12-14T06:59:44;6.46;;;6.46;;
50417;SDS011;36346;48.280;14.292;2023-12-14T07:02:12;6.32;;;6.32;;
50417;SDS011;36346;48.280;14.292;2023-12-14T07:04:44;6.67;;;6.67;;
50417;SDS011;36346;48.280;14.292;2023-12-14T07:07:12;7.94;;;7.94;;
50417;SDS011;36346;48.280;14.292;2023-12-14T07:09:40;6.88;;;6.88;;
50417;SDS011;36346;48.280;14.292;2023-12-14T07:12:08;6.67;;;6.67;;
50417;SDS011;36346;48.280;14.292;2023-12-14T07:14:39;6.92;;;6.92;;
50417;SDS011;36346;48.280;14.292;2023-12-14T07:17:07;7.44;;;7.44;;
50417;SDS011;36346;48.280;14.292;2023-12-14T07:19:36;7.03;;;7.03;;
50417;SDS011;36346;48.280;14.292;2023-12-14T07:22:05;7.95;;;7.95;;
50417;SDS011;36346;48.280;14.292;2023-12-14T07:24:34;7.53;;;7.53;;
50417;SDS011;36346;48.280;14.292;2023-12-14T07:27:15;7.02;;;7.02;;
50417;SDS011;36346;48.280;14.292;2023-12-14T07:29:43;7.32;;;7.32;;
50417;SDS011;36346;48.280;14.292;2023-12-14T07:32:12;6.90;;;6.90;;
50417;SDS011;36346;48.280;14.292;2023-12-14T07:34:40;6.88;;;6.88;;
50417;SDS011;36346;48.280;14.292;2023-12-14T07:37:08;7.04;;;7.04;;
50417;SDS011;36346;48.280;14.292;2023-12-14T07:39:38;6.78;;;6.78;;
50417;SDS011;36346;48.280;14.292;2023-12-14T07:42:07;6.34;;;6.34;;
50417;SDS011;36346;48.280;14.292;2023-12-14T07:44:35;6.24;;;6.24;;
50417;SDS011;36346;48.280;14.292;2023-12-14T07:47:03;6.55;;;6.55;;
50417;SDS011;36346;48.280;14.292;2023-12-14T07:49:31;6.75;;;6.75;;
50417;SDS011;36346;48.280;14.292;2023-12-14T07:51:59;6.65;;;6.65;;
50417;SDS011;36346;48.280;14.292;2023-12-14T07:54:27;6.14;;;6.14;;
50417;SDS011;36346;48.280;14.292;2023-12-14T07:56:56;6.36;;;6.36;;
50417;SDS011;36346;48.280;14.292;2023-12-14T07:59:24;5.99;;;5.99;;
50417;SDS011;36346;48.280;14.292;2023-12-14T08:01:52;6.02;;;6.02;;
50417;SDS011;36346;48.280;14.292;2023-12-14T08:04:20;6.06;;;6.06;;
50417;SDS011;36346;48.280;14.292;2023-12-14T08:06:49;5.83;;;5.83;;
50417;SDS011;36346;48.280;14.292;2023-12-14T08:09:17;5.41;;;5.41;;
50417;SDS011;36346;48.280;14.292;2023-12-14T08:11:45;5.39;;;5.39;;
50417;SDS011;36346;48.280;14.292;2023-12-14T08:14:13;5.46;;;5.46;;
50417;SDS011;36346;48.280;14.292;2023-12-14T08:16:41;5.61;;;5.61;;
50417;SDS011;36346;48.280;14.292;2023-12-14T08:19:09;5.12;;;5.12;;
50417;SDS011;36346;48.280;14.292;2023-12-14T08:21:37;4.92;;;4.92;;
50417;SDS011;36346;48.280;14.292;2023-12-14T08:24:05;4.53;;;4.53;;
50417;SDS011;36346;48.280;14.292;2023-12-14T08:26:35;4.74;;;4.74;;
50417;SDS011;36346;48.280;14.292;2023-12-14T08:29:06;4.77;;;4.77;;
50417;SDS011;36346;48.280;14.292;2023-12-14T08:31:34;4.62;;;4.62;;
50417;SDS011;36346;48.280;14.292;2023-12-14T08:34:02;4.75;;;4.75;;
50417;SDS011;36346;48.280;14.292;2023-12-14T08:36:31;4.50;;;4.50;;
50417;SDS011;36346;48.280;14.292;2023-12-14T08:39:00;4.33;;;4.33;;
50417;SDS011;36346;48.280;14.292;2023-12-14T08:41:28;4.17;;;4.17;;
50417;SDS011;36346;48.280;14.292;2023-12-14T08:43:56;4.04;;;4.04;;
50417;SDS011;36346;48.280;14.292;2023-12-14T08:46:24;3.41;;;3.41;;
50417;SDS011;36346;48.280;14.292;2023-12-14T08:48:52;3.40;;;3.40;;
50417;SDS011;36346;48.280;14.292;2023-12-14T08:51:20;3.11;;;3.11;;
50417;SDS011;36346;48.280;14.292;2023-12-14T08:53:48;2.98;;;2.98;;
50417;SDS011;36346;48.280;14.292;2023-12-14T08:56:16;3.00;;;3.00;;
50417;SDS011;36346;48.280;14.292;2023-12-14T08:58:46;2.80;;;2.80;;
50417;SDS011;36346;48.280;14.292;2023-12-14T09:01:20;2.85;;;2.85;;
50417;SDS011;36346;48.280;14.292;2023-12-14T09:03:49;2.61;;;2.60;;
50417;SDS011;36346;48.280;14.292;2023-12-14T09:06:18;2.60;;;2.60;;
50417;SDS011;36346;48.280;14.292;2023-12-14T09:08:46;2.27;;;2.27;;
50417;SDS011;36346;48.280;14.292;2023-12-14T09:11:14;3.05;;;3.05;;
50417;SDS011;36346;48.280;14.292;2023-12-14T09:13:43;8.70;;;8.68;;
50417;SDS011;36346;48.280;14.292;2023-12-14T09:16:11;5.73;;;5.67;;
50417;SDS011;36346;48.280;14.292;2023-12-14T09:18:40;3.86;;;3.83;;
50417;SDS011;36346;48.280;14.292;2023-12-14T09:21:09;3.31;;;3.30;;
50417;SDS011;36346;48.280;14.292;2023-12-14T09:23:37;2.14;;;2.14;;
50417;SDS011;36346;48.280;14.292;2023-12-14T09:26:05;1.94;;;1.94;;
50417;SDS011;36346;48.280;14.292;2023-12-14T09:28:33;2.07;;;2.07;;
50417;SDS011;36346;48.280;14.292;2023-12-14T09:31:01;2.41;;;2.41;;
50417;SDS011;36346;48.280;14.292;2023-12-14T09:33:33;2.17;;;2.17;;
50417;SDS011;36346;48.280;14.292;2023-12-14T09:36:01;2.02;;;2.01;;
50417;SDS011;36346;48.280;14.292;2023-12-14T09:38:30;1.74;;;1.73;;
50417;SDS011;36346;48.280;14.292;2023-12-14T09:40:58;2.80;;;2.77;;
50417;SDS011;36346;48.280;14.292;2023-12-14T09:43:27;2.10;;;2.08;;
50417;SDS011;36346;48.280;14.292;2023-12-14T09:45:55;2.07;;;2.07;;
50417;SDS011;36346;48.280;14.292;2023-12-14T09:48:23;2.14;;;2.13;;
50417;SDS011;36346;48.280;14.292;2023-12-14T09:50:52;2.02;;;2.01;;
50417;SDS011;36346;48.280;14.292;2023-12-14T09:53:20;2.07;;;2.05;;
50417;SDS011;36346;48.280;14.292;2023-12-14T09:55:51;1.90;;;1.88;;
50417;SDS011;36346;48.280;14.292;2023-12-14T09:58:19;1.71;;;1.69;;
50417;SDS011;36346;48.280;14.292;2023-12-14T10:00:47;1.93;;;1.91;;
50417;SDS011;36346;48.280;14.292;2023-12-14T10:03:22;2.03;;;2.01;;
50417;SDS011;36346;48.280;14.292;2023-12-14T10:05:54;1.96;;;1.95;;
50417;SDS011;36346;48.280;14.292;2023-12-14T10:08:23;2.13;;;2.11;;
50417;SDS011;36346;48.280;14.292;2023-12-14T10:10:53;2.36;;;2.35;;
50417;SDS011;36346;48.280;14.292;2023-12-14T10:13:37;2.30;;;2.28;;
50417;SDS011;36346;48.280;14.292;2023-12-14T10:16:06;2.43;;;2.41;;
50417;SDS011;36346;48.280;14.292;2023-12-14T10:18:35;2.04;;;2.02;;
50417;SDS011;36346;48.280;14.292;2023-12-14T10:21:05;1.95;;;1.93;;
50417;SDS011;36346;48.280;14.292;2023-12-14T10:23:35;2.32;;;2.29;;
50417;SDS011;36346;48.280;14.292;2023-12-14T10:26:04;2.21;;;2.19;;
50417;SDS011;36346;48.280;14.292;2023-12-14T10:28:32;2.26;;;2.24;;
50417;SDS011;36346;48.280;14.292;2023-12-14T10:31:00;1.91;;;1.89;;
50417;SDS011;36346;48.280;14.292;2023-12-14T10:33:28;2.13;;;2.12;;
50417;SDS011;36346;48.280;14.292;2023-12-14T10:35:57;2.17;;;2.16;;
50417;SDS011;36346;48.280;14.292;2023-12-14T10:38:26;2.20;;;2.18;;
50417;SDS011;36346;48.280;14.292;2023-12-14T10:40:57;2.26;;;2.21;;
50417;SDS011;36346;48.280;14.292;2023-12-14T10:43:26;2.15;;;2.11;;
50417;SDS011;36346;48.280;14.292;2023-12-14T10:45:57;2.38;;;2.34;;
50417;SDS011;36346;48.280;14.292;2023-12-14T10:48:27;2.62;;;2.58;;
50417;SDS011;36346;48.280;14.292;2023-12-14T10:50:57;2.55;;;2.53;;
50417;SDS011;36346;48.280;14.292;2023-12-14T10:53:29;2.52;;;2.50;;
50417;SDS011;36346;48.280;14.292;2023-12-14T10:55:58;2.54;;;2.52;;
50417;SDS011;36346;48.280;14.292;2023-12-14T11:01:23;2.45;;;2.45;;
50417;SDS011;36346;48.280;14.292;2023-12-14T11:03:55;2.64;;;2.64;;
50417;SDS011;36346;48.280;14.292;2023-12-14T11:06:36;2.73;;;2.72;;
50417;SDS011;36346;48.280;14.292;2023-12-14T11:09:07;2.48;;;2.47;;
50417;SDS011;36346;48.280;14.292;2023-12-14T11:11:54;2.50;;;2.49;;
50417;SDS011;36346;48.280;14.292;2023-12-14T11:14:27;2.78;;;2.76;;
50417;SDS011;36346;48.280;14.292;2023-12-14T11:16:56;2.72;;;2.71;;
50417;SDS011;36346;48.280;14.292;2023-12-14T11:19:34;2.62;;;2.62;;
50417;SDS011;36346;48.280;14.292;2023-12-14T11:24:46;2.92;;;2.92;;
50417;SDS011;36346;48.280;14.292;2023-12-14T11:27:25;2.78;;;2.78;;
50417;SDS011;36346;48.280;14.292;2023-12-14T11:29:56;3.07;;;3.07;;
50417;SDS011;36346;48.280;14.292;2023-12-14T11:32:25;3.54;;;3.54;;
50417;SDS011;36346;48.280;14.292;2023-12-14T11:34:54;3.72;;;3.72;;
50417;SDS011;36346;48.280;14.292;2023-12-14T11:37:23;3.96;;;3.95;;
50417;SDS011;36346;48.280;14.292;2023-12-14T11:39:51;4.31;;;4.31;;
50417;SDS011;36346;48.280;14.292;2023-12-14T11:42:21;5.91;;;5.87;;
50417;SDS011;36346;48.280;14.292;2023-12-14T11:44:49;4.74;;;4.70;;
50417;SDS011;36346;48.280;14.292;2023-12-14T11:47:19;4.72;;;4.72;;
50417;SDS011;36346;48.280;14.292;2023-12-14T11:49:48;4.95;;;4.95;;
50417;SDS011;36346;48.280;14.292;2023-12-14T11:52:17;5.12;;;5.12;;
50417;SDS011;36346;48.280;14.292;2023-12-14T11:54:46;5.19;;;5.19;;
50417;SDS011;36346;48.280;14.292;2023-12-14T11:57:15;5.44;;;5.44;;
50417;SDS011;36346;48.280;14.292;2023-12-14T11:59:44;5.93;;;5.93;;
50417;SDS011;36346;48.280;14.292;2023-12-14T12:02:12;5.86;;;5.86;;
50417;SDS011;36346;48.280;14.292;2023-12-14T12:04:51;6.18;;;6.18;;
50417;SDS011;36346;48.280;14.292;2023-12-14T12:07:20;5.47;;;5.47;;
50417;SDS011;36346;48.280;14.292;2023-12-14T12:09:48;5.68;;;5.68;;
50417;SDS011;36346;48.280;14.292;2023-12-14T12:12:20;5.86;;;5.86;;
50417;SDS011;36346;48.280;14.292;2023-12-14T12:14:48;5.54;;;5.54;;
50417;SDS011;36346;48.280;14.292;2023-12-14T12:17:20;5.11;;;5.11;;
50417;SDS011;36346;48.280;14.292;2023-12-14T12:19:48;5.63;;;5.63;;
50417;SDS011;36346;48.280;14.292;2023-12-14T12:22:16;5.17;;;5.17;;
50417;SDS011;36346;48.280;14.292;2023-12-14T12:24:44;5.19;;;5.19;;
50417;SDS011;36346;48.280;14.292;2023-12-14T12:27:15;5.65;;;5.64;;
50417;SDS011;36346;48.280;14.292;2023-12-14T12:29:43;6.11;;;6.11;;
50417;SDS011;36346;48.280;14.292;2023-12-14T12:32:11;5.88;;;5.88;;
50417;SDS011;36346;48.280;14.292;2023-12-14T12:34:39;5.66;;;5.66;;
50417;SDS011;36346;48.280;14.292;2023-12-14T12:37:07;5.69;;;5.69;;
50417;SDS011;36346;48.280;14.292;2023-12-14T12:39:35;6.30;;;6.30;;
50417;SDS011;36346;48.280;14.292;2023-12-14T12:42:03;6.00;;;6.00;;
50417;SDS011;36346;48.280;14.292;2023-12-14T12:44:31;6.68;;;6.68;;
50417;SDS011;36346;48.280;14.292;2023-12-14T12:47:00;6.44;;;6.44;;
50417;SDS011;36346;48.280;14.292;2023-12-14T12:49:37;6.60;;;6.60;;
50417;SDS011;36346;48.280;14.292;2023-12-14T12:52:06;6.37;;;6.37;;
50417;SDS011;36346;48.280;14.292;2023-12-14T12:54:34;6.51;;;6.51;;
50417;SDS011;36346;48.280;14.292;2023-12-14T12:57:02;6.11;;;6.11;;
50417;SDS011;36346;48.280;14.292;2023-12-14T12:59:30;6.42;;;6.42;;
50417;SDS011;36346;48.280;14.292;2023-12-14T13:01:58;6.41;;;6.41;;
50417;SDS011;36346;48.280;14.292;2023-12-14T13:04:26;6.15;;;6.15;;
50417;SDS011;36346;48.280;14.292;2023-12-14T13:06:54;6.24;;;6.24;;
50417;SDS011;36346;48.280;14.292;2023-12-14T13:09:22;6.64;;;6.64;;
50417;SDS011;36346;48.280;14.292;2023-12-14T13:11:50;6.29;;;6.29;;
50417;SDS011;36346;48.280;14.292;2023-12-14T13:14:18;6.42;;;6.42;;
50417;SDS011;36346;48.280;14.292;2023-12-14T13:16:47;6.51;;;6.51;;
50417;SDS011;36346;48.280;14.292;2023-12-14T13:19:15;6.21;;;6.21;;
50417;SDS011;36346;48.280;14.292;2023-12-14T13:21:44;7.26;;;7.26;;
50417;SDS011;36346;48.280;14.292;2023-12-14T13:24:12;6.32;;;6.32;;
50417;SDS011;36346;48.280;14.292;2023-12-14T13:26:40;5.69;;;5.69;;
50417;SDS011;36346;48.280;14.292;2023-12-14T13:29:08;5.85;;;5.85;;
50417;SDS011;36346;48.280;14.292;2023-12-14T13:31:36;6.05;;;6.05;;
50417;SDS011;36346;48.280;14.292;2023-12-14T13:34:06;5.86;;;5.86;;
50417;SDS011;36346;48.280;14.292;2023-12-14T13:36:35;5.45;;;5.45;;
50417;SDS011;36346;48.280;14.292;2023-12-14T13:39:03;5.76;;;5.76;;
50417;SDS011;36346;48.280;14.292;2023-12-14T13:41:31;5.40;;;5.40;;
50417;SDS011;36346;48.280;14.292;2023-12-14T13:44:16;5.71;;;5.71;;
50417;SDS011;36346;48.280;14.292;2023-12-14T13:46:47;5.76;;;5.76;;
50417;SDS011;36346;48.280;14.292;2023-12-14T13:49:15;5.60;;;5.60;;
50417;SDS011;36346;48.280;14.292;2023-12-14T13:51:43;5.67;;;5.67;;
50417;SDS011;36346;48.280;14.292;2023-12-14T13:54:11;5.48;;;5.48;;
50417;SDS011;36346;48.280;14.292;2023-12-14T13:56:39;5.31;;;5.31;;
50417;SDS011;36346;48.280;14.292;2023-12-14T13:59:07;5.86;;;5.86;;
50417;SDS011;36346;48.280;14.292;2023-12-14T14:01:36;6.06;;;6.06;;
50417;SDS011;36346;48.280;14.292;2023-12-14T14:04:05;5.88;;;5.88;;
50417;SDS011;36346;48.280;14.292;2023-12-14T14:06:33;6.02;;;6.02;;
50417;SDS011;36346;48.280;14.292;2023-12-14T14:09:01;6.13;;;6.13;;
50417;SDS011;36346;48.280;14.292;2023-12-14T14:11:32;5.49;;;5.49;;
50417;SDS011;36346;48.280;14.292;2023-12-14T14:14:03;5.48;;;5.48;;
50417;SDS011;36346;48.280;14.292;2023-12-14T14:16:31;5.73;;;5.73;;
50417;SDS011;36346;48.280;14.292;2023-12-14T14:18:59;5.39;;;5.39;;
50417;SDS011;36346;48.280;14.292;2023-12-14T14:21:27;5.36;;;5.35;;
50417;SDS011;36346;48.280;14.292;2023-12-14T14:23:56;5.30;;;5.30;;
50417;SDS011;36346;48.280;14.292;2023-12-14T14:26:25;5.73;;;5.73;;
50417;SDS011;36346;48.280;14.292;2023-12-14T14:28:53;5.20;;;5.18;;
50417;SDS011;36346;48.280;14.292;2023-12-14T14:31:28;5.25;;;5.23;;
50417;SDS011;36346;48.280;14.292;2023-12-14T14:34:00;5.16;;;5.16;;
50417;SDS011;36346;48.280;14.292;2023-12-14T14:36:28;5.35;;;5.35;;
50417;SDS011;36346;48.280;14.292;2023-12-14T14:38:56;4.96;;;4.96;;
50417;SDS011;36346;48.280;14.292;2023-12-14T14:41:25;5.07;;;5.07;;
50417;SDS011;36346;48.280;14.292;2023-12-14T14:43:53;5.25;;;5.25;;
50417;SDS011;36346;48.280;14.292;2023-12-14T14:46:21;7.31;;;7.31;;
50417;SDS011;36346;48.280;14.292;2023-12-14T14:48:49;5.93;;;5.93;;